Time;durP1;ratioP1;P1;durP2;ratioP2;P2;SDS_P1;SDS_P2;PMS_P1;PMS_P2;Temp;Humidity;BMP_temperature;BMP_pressure;BME280_temperature;BME280_humidity;BME280_pressure;Samples;Min_cycle;Max_cycle;Signal;HPM_P1;HPM_P2
2022/11/15 00:00:20;;;;;;;94.25;59.10;;;;;;;4.98;100.00;99773.22;4862291;29;20083;-82
2022/11/15 00:02:45;;;;;;;93.15;63.88;;;;;;;4.96;100.00;99769.81;4878229;29;20021;-82
2022/11/15 00:05:11;;;;;;;90.35;59.53;;;;;;;4.95;100.00;99766.38;4877994;29;20037;-82
2022/11/15 00:07:36;;;;;;;85.20;56.55;;;;;;;4.89;100.00;99751.06;4877916;29;20060;-82
2022/11/15 00:10:02;;;;;;;98.97;68.57;;;;;;;4.96;100.00;99751.75;4862257;29;20041;-82
2022/11/15 00:12:28;;;;;;;85.70;55.45;;;;;;;4.97;100.00;99753.44;4877957;29;20043;-83
2022/11/15 00:14:53;;;;;;;94.85;65.03;;;;;;;4.95;100.00;99752.63;4862185;29;20041;-82
2022/11/15 00:17:19;;;;;;;93.93;59.73;;;;;;;4.94;100.00;99743.22;4861847;29;20033;-82
2022/11/15 00:19:44;;;;;;;99.55;64.03;;;;;;;4.91;100.00;99738.94;4862102;29;20706;-83
2022/11/15 00:22:10;;;;;;;85.47;56.83;;;;;;;4.93;100.00;99741.47;4877414;29;20051;-82
2022/11/15 00:24:35;;;;;;;85.68;56.75;;;;;;;4.91;100.00;99746.69;4861961;29;20052;-83
2022/11/15 00:27:01;;;;;;;93.28;61.97;;;;;;;4.92;100.00;99742.38;4873028;29;20076;-82
2022/11/15 00:29:26;;;;;;;81.57;53.22;;;;;;;4.92;100.00;99742.38;4879834;29;20037;-82
2022/11/15 00:31:52;;;;;;;82.20;53.58;;;;;;;4.90;100.00;99744.16;4878581;29;20033;-82
2022/11/15 00:34:17;;;;;;;91.32;58.75;;;;;;;4.88;100.00;99740.75;4878220;29;20362;-83
2022/11/15 00:36:43;;;;;;;88.15;55.28;;;;;;;4.85;100.00;99739.09;4880095;29;20069;-82
2022/11/15 00:39:08;;;;;;;83.30;53.65;;;;;;;4.78;100.00;99732.38;4879733;29;20047;-82
2022/11/15 00:41:34;;;;;;;84.93;55.70;;;;;;;4.80;100.00;99743.50;4877556;29;20128;-82
2022/11/15 00:43:59;;;;;;;79.63;54.17;;;;;;;4.70;100.00;99731.69;4879814;29;20033;-82
2022/11/15 00:46:24;;;;;;;84.88;54.42;;;;;;;4.66;100.00;99724.88;4878167;29;20025;-82
2022/11/15 00:48:50;;;;;;;102.43;69.13;;;;;;;4.64;100.00;99718.91;4879534;29;20367;-82
2022/11/15 00:51:15;;;;;;;99.63;67.85;;;;;;;4.58;100.00;99717.31;4878283;29;20108;-82
2022/11/15 00:53:40;;;;;;;102.45;74.97;;;;;;;4.61;100.00;99724.97;4878341;29;20033;-82
2022/11/15 00:56:06;;;;;;;87.63;58.90;;;;;;;4.67;100.00;99737.75;4878324;29;20021;-82
2022/11/15 00:58:31;;;;;;;84.95;58.88;;;;;;;4.63;100.00;99730.94;4877844;29;20040;-83
2022/11/15 01:01:09;;;;;;;78.38;57.88;;;;;;;4.52;100.00;99712.28;4879597;29;20410;-83
2022/11/15 01:03:35;;;;;;;82.70;54.67;;;;;;;4.59;100.00;99729.31;4879074;29;20426;-83
2022/11/15 01:06:00;;;;;;;82.70;55.25;;;;;;;4.56;100.00;99736.28;4878181;29;20035;-82
2022/11/15 01:08:26;;;;;;;76.60;53.72;;;;;;;4.49;100.00;99726.09;4879402;29;20029;-83
2022/11/15 01:10:51;;;;;;;86.88;58.67;;;;;;;4.46;100.00;99720.13;4878015;29;20029;-83
2022/11/15 01:13:17;;;;;;;275.05;137.27;;;;;;;4.40;100.00;99707.38;4878003;29;20373;-82
2022/11/15 01:15:42;;;;;;;265.63;143.88;;;;;;;4.41;100.00;99711.66;4879165;29;20113;-83
2022/11/15 01:18:08;;;;;;;152.18;87.95;;;;;;;4.45;100.00;99713.28;4879054;29;20029;-83
2022/11/15 01:20:33;;;;;;;89.57;58.70;;;;;;;4.46;100.00;99726.13;4877723;29;20033;-82
2022/11/15 01:22:58;;;;;;;93.75;61.67;;;;;;;4.46;100.00;99712.41;4877704;29;20423;-82
2022/11/15 01:25:24;;;;;;;98.95;66.13;;;;;;;4.46;100.00;99720.97;4877745;29;20104;-83
2022/11/15 01:27:49;;;;;;;113.32;74.32;;;;;;;4.42;100.00;99719.34;4877611;29;20037;-83
2022/11/15 01:30:15;;;;;;;106.47;71.68;;;;;;;4.37;100.00;99710.00;4876330;29;20033;-83
2022/11/15 01:32:40;;;;;;;103.30;66.20;;;;;;;4.40;100.00;99710.81;4875988;29;20136;-83
2022/11/15 01:35:05;;;;;;;100.68;67.18;;;;;;;4.32;100.00;99693.78;4876623;29;20047;-83
2022/11/15 01:37:31;;;;;;;134.52;90.05;;;;;;;4.36;100.00;99698.00;4876139;29;20033;-82
2022/11/15 01:39:56;;;;;;;101.70;67.65;;;;;;;4.32;100.00;99692.06;4876366;29;20037;-82
2022/11/15 01:42:21;;;;;;;89.63;57.65;;;;;;;4.31;100.00;99690.38;4860374;29;20493;-82
2022/11/15 01:44:51;;;;;;;80.30;55.40;;;;;;;4.30;100.00;99685.22;4860658;29;20493;-83
2022/11/15 01:47:25;;;;;;;86.18;56.58;;;;;;;4.25;100.00;99673.28;4860573;29;20033;-83
2022/11/15 01:50:00;;;;;;;82.78;55.38;;;;;;;4.29;100.00;99678.38;4876193;29;20139;-83
2022/11/15 01:52:29;;;;;;;83.80;52.58;;;;;;;4.28;100.00;99674.09;4860359;29;20031;-82
2022/11/15 01:55:25;;;;;;;81.97;52.38;;;;;;;4.28;100.00;99674.09;4860445;29;20060;-82
2022/11/15 01:57:54;;;;;;;79.38;53.50;;;;;;;4.27;100.00;99673.25;4787547;29;20522;-82
2022/11/15 02:00:20;;;;;;;81.28;51.67;;;;;;;4.25;100.00;99672.44;4805202;29;20483;-82
2022/11/15 02:02:45;;;;;;;86.65;54.50;;;;;;;4.27;100.00;99664.69;4805670;29;20054;-83
2022/11/15 02:05:11;;;;;;;87.88;56.33;;;;;;;4.18;100.00;99651.09;4821022;29;20066;-82
2022/11/15 02:07:36;;;;;;;79.80;51.92;;;;;;;4.21;100.00;99651.03;4805362;29;20034;-82
2022/11/15 02:10:08;;;;;;;79.50;51.90;;;;;;;4.23;100.00;99659.59;4805475;29;20171;-82
2022/11/15 02:12:34;;;;;;;74.03;48.55;;;;;;;4.21;100.00;99658.78;4802175;29;20118;-83
2022/11/15 02:15:01;;;;;;;85.10;55.20;;;;;;;4.18;100.00;99647.69;4802478;29;20515;-82
2022/11/15 02:17:47;;;;;;;86.95;55.30;;;;;;;4.22;100.00;99657.03;4802270;29;20042;-83
2022/11/15 02:20:29;;;;;;;77.47;49.08;;;;;;;4.22;100.00;99664.78;4787465;29;20057;-83
2022/11/15 02:23:19;;;;;;;77.97;50.90;;;;;;;4.22;100.00;99659.63;4787173;29;20038;-82
2022/11/15 02:25:53;;;;;;;79.50;51.25;;;;;;;4.22;100.00;99664.78;4787144;29;20023;-82
2022/11/15 02:28:29;;;;;;;81.70;51.42;;;;;;;4.16;100.00;99646.84;4802417;29;20452;-83
2022/11/15 02:31:04;;;;;;;77.95;49.53;;;;;;;4.17;100.00;99654.56;4787316;29;20076;-82
2022/11/15 02:33:41;;;;;;;69.50;47.65;;;;;;;4.14;100.00;99656.34;4803113;29;20038;-83
2022/11/15 02:36:20;;;;;;;74.00;46.15;;;;;;;4.06;100.00;99642.78;4841740;29;20021;-83
2022/11/15 02:39:19;;;;;;;77.25;48.08;;;;;;;4.11;100.00;99656.41;4856946;29;20065;-83
2022/11/15 02:41:54;;;;;;;81.85;49.80;;;;;;;4.04;100.00;99645.34;4784124;30;20043;-83
2022/11/15 02:44:28;;;;;;;92.38;57.60;;;;;;;4.01;100.00;99648.03;4813742;29;20042;-82
2022/11/15 02:47:13;;;;;;;87.10;53.35;;;;;;;3.98;100.00;99645.50;4805319;29;20038;-82
2022/11/15 02:49:54;;;;;;;108.68;63.67;;;;;;;3.91;100.00;99641.34;4820286;29;20039;-82
2022/11/15 02:52:22;;;;;;;85.93;51.97;;;;;;;3.90;100.00;99627.59;4805197;29;20041;-82
2022/11/15 02:54:56;;;;;;;79.97;50.20;;;;;;;3.90;100.00;99626.75;4804949;29;20066;-82
2022/11/15 02:57:45;;;;;;;81.60;52.15;;;;;;;3.93;100.00;99627.56;4805119;29;20027;-83
2022/11/15 03:00:14;;;;;;;79.70;50.20;;;;;;;3.86;100.00;99622.53;4820270;29;20066;-83
2022/11/15 03:02:45;;;;;;;77.35;49.30;;;;;;;3.90;100.00;99630.19;4804886;29;20430;-83
2022/11/15 03:05:17;;;;;;;73.72;46.38;;;;;;;3.81;100.00;99609.75;4823609;29;20427;-82
2022/11/15 03:08:10;;;;;;;73.07;47.83;;;;;;;3.83;100.00;99620.03;4823397;29;20070;-83
2022/11/15 03:10:53;;;;;;;72.90;47.85;;;;;;;3.84;100.00;99630.31;4823299;29;20037;-83
2022/11/15 03:13:33;;;;;;;74.78;47.00;;;;;;;3.80;100.00;99625.25;4823434;29;20368;-83
2022/11/15 03:16:09;;;;;;;76.63;47.78;;;;;;;3.77;100.00;99625.31;4823785;29;20058;-83
2022/11/15 03:18:43;;;;;;;76.80;48.42;;;;;;;3.72;100.00;99615.94;4840955;29;20414;-83
2022/11/15 03:21:12;;;;;;;84.90;51.25;;;;;;;3.72;100.00;99605.63;4879665;29;20116;-82
2022/11/15 03:23:39;;;;;;;81.47;49.95;;;;;;;3.70;100.00;99599.66;4881058;29;20025;-83
2022/11/15 03:26:08;;;;;;;75.32;47.63;;;;;;;3.66;100.00;99599.75;4879815;29;20037;-82
2022/11/15 03:28:38;;;;;;;105.70;57.03;;;;;;;3.67;100.00;99606.63;4880758;29;20466;-82
2022/11/15 03:31:46;;;;;;;89.35;51.95;;;;;;;3.68;100.00;99603.16;4881184;29;20033;-82
2022/11/15 03:33:54;;;;;;;116.45;68.65;;;;;;;3.63;100.00;99595.50;4880831;29;20075;-82
2022/11/15 03:36:23;;;;;;;132.80;72.10;;;;;;;3.64;100.00;99607.50;4879771;29;20033;-82
2022/11/15 03:38:48;;;;;;;91.95;55.42;;;;;;;3.62;100.00;99598.09;4880657;29;20029;-82
2022/11/15 03:41:26;;;;;;;98.50;57.00;;;;;;;3.58;100.00;99599.03;4879637;29;20031;-83
2022/11/15 03:44:14;;;;;;;81.70;50.70;;;;;;;3.60;100.00;99600.72;4880994;29;20052;-83
2022/11/15 03:46:48;;;;;;;156.50;97.07;;;;;;;3.53;100.00;99590.56;4879540;29;20025;-82
2022/11/15 03:49:29;;;;;;;150.80;96.30;;;;;;;3.46;100.00;99585.53;4879488;29;20025;-82
2022/11/15 03:51:58;;;;;;;150.15;94.75;;;;;;;3.49;100.00;99593.19;4880691;29;20464;-82
2022/11/15 03:54:23;;;;;;;126.82;81.72;;;;;;;3.35;100.00;99572.00;4879272;29;20032;-83
2022/11/15 03:56:48;;;;;;;106.95;65.55;;;;;;;3.36;100.00;99578.00;4880491;29;20480;-83
2022/11/15 03:59:14;;;;;;;99.03;63.45;;;;;;;3.38;100.00;99597.69;4879317;29;20081;-82
2022/11/15 04:01:39;;;;;;;104.00;64.07;;;;;;;3.33;100.00;99594.38;4880282;29;20035;-82
2022/11/15 04:04:04;;;;;;;88.72;56.83;;;;;;;3.34;100.00;99595.22;4880419;29;20492;-83
2022/11/15 04:06:30;;;;;;;99.63;61.03;;;;;;;3.31;100.00;99582.38;4878888;29;20397;-83
2022/11/15 04:08:55;;;;;;;92.38;59.08;;;;;;;3.25;100.00;99580.78;4878909;29;20028;-83
2022/11/15 04:11:20;;;;;;;83.50;53.22;;;;;;;3.27;100.00;99580.75;4880506;29;20121;-82
2022/11/15 04:13:46;;;;;;;81.97;54.95;;;;;;;3.28;100.00;99585.00;4878872;29;20024;-83
2022/11/15 04:16:11;;;;;;;80.28;53.90;;;;;;;3.29;100.00;99584.13;4877808;29;20021;-82
2022/11/15 04:18:37;;;;;;;80.25;51.22;;;;;;;3.23;100.00;99583.38;4879808;29;20081;-83
2022/11/15 04:26:31;;;;;;;70.55;46.10;;;;;;;3.11;100.00;99578.44;4879938;29;20434;-82
2022/11/15 04:31:40;;;;;;;61.88;42.15;;;;;;;3.08;100.00;99585.38;4879629;29;20079;-83
2022/11/15 04:34:05;;;;;;;71.38;45.70;;;;;;;3.08;100.00;99575.94;4880048;29;20048;-83
2022/11/15 04:39:14;;;;;;;66.40;43.72;;;;;;;3.14;100.00;99575.81;4879837;29;20032;-83
2022/11/15 04:41:40;;;;;;;72.22;45.17;;;;;;;3.08;100.00;99560.50;4879889;29;20397;-83
2022/11/15 04:44:05;;;;;;;68.05;45.03;;;;;;;3.13;100.00;99563.81;4878374;29;20025;-83
2022/11/15 04:46:30;;;;;;;73.00;47.08;;;;;;;3.18;100.00;99572.31;4878018;29;20028;-83
2022/11/15 04:48:56;;;;;;;74.47;47.17;;;;;;;3.19;100.00;99573.16;4879827;29;20087;-83
2022/11/15 04:51:21;;;;;;;77.70;48.00;;;;;;;3.19;100.00;99570.59;4878403;29;20029;-83
2022/11/15 04:53:46;;;;;;;74.18;47.53;;;;;;;3.14;100.00;99559.53;4878060;29;20028;-83
2022/11/15 04:56:12;;;;;;;75.53;47.30;;;;;;;3.13;100.00;99558.69;4878222;29;20040;-83
2022/11/15 04:58:37;;;;;;;72.47;45.95;;;;;;;3.09;100.00;99553.63;4862369;29;20127;-83
2022/11/15 05:01:10;;;;;;;77.47;46.03;;;;;;;3.09;100.00;99558.75;4877917;29;20634;-83
2022/11/15 05:06:20;;;;;;;88.43;53.38;;;;;;;2.97;100.00;99557.25;4879643;29;20377;-83
2022/11/15 05:08:45;;;;;;;74.30;47.50;;;;;;;2.98;100.00;99561.50;4879049;29;20025;-83
2022/11/15 05:11:11;;;;;;;69.85;45.67;;;;;;;3.02;100.00;99550.28;4879469;29;20032;-83
2022/11/15 05:13:36;;;;;;;71.80;45.22;;;;;;;3.02;100.00;99552.03;4878871;29;20479;-83
2022/11/15 05:16:01;;;;;;;80.20;50.38;;;;;;;3.00;100.00;99552.91;4879271;29;20100;-83
2022/11/15 05:18:27;;;;;;;80.22;49.58;;;;;;;3.00;100.00;99554.63;4877861;29;20116;-83
2022/11/15 05:20:52;;;;;;;73.35;47.22;;;;;;;3.01;100.00;99551.19;4878943;29;20036;-83
2022/11/15 05:23:17;;;;;;;78.50;48.78;;;;;;;3.03;100.00;99546.84;4878720;29;20045;-83
2022/11/15 05:25:43;;;;;;;78.72;48.40;;;;;;;3.04;100.00;99548.56;4877170;29;20035;-83
2022/11/15 05:28:08;;;;;;;73.80;49.47;;;;;;;3.02;100.00;99555.44;4878673;29;20116;-83
2022/11/15 05:30:33;;;;;;;72.68;47.40;;;;;;;2.94;100.00;99541.84;4878694;29;20074;-83
2022/11/15 05:33:00;;;;;;;72.90;45.65;;;;;;;2.83;100.00;99534.34;4877746;29;20029;-83
2022/11/15 05:35:39;;;;;;;65.80;42.15;;;;;;;2.85;100.00;99545.44;4877579;29;20032;-83
2022/11/15 05:38:05;;;;;;;74.07;42.65;;;;;;;2.86;100.00;99547.13;4877492;29;20049;-83
2022/11/15 05:40:31;;;;;;;75.15;43.88;;;;;;;2.87;100.00;99553.16;4878286;29;20065;-83
2022/11/15 05:42:59;;;;;;;67.38;44.30;;;;;;;2.79;100.00;99542.13;4877105;29;20025;-83
2022/11/15 05:45:24;;;;;;;65.70;43.42;;;;;;;2.82;100.00;99547.22;4879125;29;20033;-83
2022/11/15 05:47:51;;;;;;;83.47;55.92;;;;;;;2.78;100.00;99540.41;4877277;29;20040;-83
2022/11/15 05:50:18;;;;;;;82.65;57.00;;;;;;;2.72;100.00;99531.09;4878543;29;20025;-83
2022/11/15 05:52:45;;;;;;;114.18;86.30;;;;;;;2.63;100.00;99524.38;4877060;29;20073;-83
2022/11/15 05:55:11;;;;;;;91.28;63.03;;;;;;;2.64;100.00;99531.22;4878409;29;20032;-83
2022/11/15 05:57:37;;;;;;;80.55;54.20;;;;;;;2.68;100.00;99550.84;4877225;29;20389;-83
2022/11/15 06:00:04;;;;;;;82.90;52.28;;;;;;;2.66;100.00;99541.50;4877173;29;20036;-83
2022/11/15 06:02:29;;;;;;;74.47;49.08;;;;;;;2.65;100.00;99534.63;4878391;29;20530;-83
2022/11/15 06:04:54;;;;;;;81.15;53.15;;;;;;;2.61;100.00;99528.72;4878138;29;20028;-83
2022/11/15 06:07:20;;;;;;;77.95;52.13;;;;;;;2.65;100.00;99535.47;4878517;29;20202;-83
2022/11/15 06:09:45;;;;;;;76.47;50.63;;;;;;;2.63;100.00;99529.53;4876705;29;20441;-84
2022/11/15 06:12:10;;;;;;;81.80;55.42;;;;;;;2.60;100.00;99532.13;4878490;29;20025;-83
2022/11/15 06:14:36;;;;;;;90.00;56.97;;;;;;;2.67;100.00;99548.31;4878504;29;20235;-83
2022/11/15 06:17:02;;;;;;;78.38;53.50;;;;;;;2.65;100.00;99539.78;4878254;29;20033;-83
2022/11/15 06:19:32;;;;;;;83.97;55.83;;;;;;;2.62;100.00;99545.84;4878265;29;20021;-83
2022/11/15 06:21:58;;;;;;;86.03;57.87;;;;;;;2.67;100.00;99548.31;4876730;29;20081;-83
2022/11/15 06:24:23;;;;;;;82.82;53.35;;;;;;;2.57;100.00;99536.47;4878152;29;20677;-83
2022/11/15 06:26:48;;;;;;;88.50;56.72;;;;;;;2.48;100.00;99533.16;4876818;29;20064;-83
2022/11/15 06:29:14;;;;;;;74.32;46.72;;;;;;;2.46;100.00;99537.50;4876964;29;20040;-83
2022/11/15 06:31:39;;;;;;;78.57;50.20;;;;;;;2.53;100.00;99545.09;4877927;29;20462;-83
2022/11/15 06:34:04;;;;;;;74.03;47.38;;;;;;;2.57;100.00;99533.91;4875552;29;20132;-83
2022/11/15 06:36:30;;;;;;;74.55;51.00;;;;;;;2.70;100.00;99556.00;4875712;29;20041;-83
2022/11/15 06:38:56;;;;;;;74.03;50.45;;;;;;;2.66;100.00;99552.63;4861573;29;20076;-83
2022/11/15 06:41:21;;;;;;;75.93;50.67;;;;;;;2.80;100.00;99562.69;4879733;29;20056;-83
2022/11/15 06:43:47;;;;;;;75.75;49.42;;;;;;;2.82;100.00;99560.91;4879129;29;20037;-83
2022/11/15 06:46:12;;;;;;;77.18;49.95;;;;;;;2.83;100.00;99570.34;4879677;29;20120;-83
2022/11/15 06:48:37;;;;;;;76.25;50.00;;;;;;;2.85;100.00;99560.88;4879279;29;20049;-83
2022/11/15 06:51:04;;;;;;;87.40;55.42;;;;;;;2.97;100.00;99555.53;4879135;29;20036;-83
2022/11/15 06:53:30;;;;;;;82.63;55.95;;;;;;;3.03;100.00;99546.84;4879121;29;20557;-83
2022/11/15 06:56:04;;;;;;;77.97;51.90;;;;;;;3.25;100.00;99555.88;4878943;29;20033;-83
2022/11/15 06:58:30;;;;;;;82.22;51.47;;;;;;;3.43;100.00;99562.41;4879120;29;20470;-83
2022/11/15 07:01:04;;;;;;;80.68;49.70;;;;;;;3.64;100.00;99558.56;4878849;29;20029;-83
2022/11/15 07:03:29;;;;;;;73.93;48.95;;;;;;;3.88;100.00;99561.53;4879386;29;20096;-83
2022/11/15 07:05:56;;;;;;;74.60;49.15;;;;;;;4.04;100.00;99569.78;4879652;29;20369;-83
2022/11/15 07:08:23;;;;;;;76.50;49.92;;;;;;;4.27;100.00;99577.03;4880318;29;20032;-83
2022/11/15 07:10:48;;;;;;;73.45;48.55;;;;;;;4.43;100.00;99574.06;4881253;29;20025;-83
2022/11/15 07:13:14;;;;;;;71.45;46.22;;;;;;;4.60;100.00;99575.41;4880081;29;20036;-83
2022/11/15 07:15:39;;;;;;;68.57;45.78;;;;;;;4.74;100.00;99579.34;4881314;29;20105;-83
2022/11/15 07:18:04;;;;;;;64.85;43.28;;;;;;;4.84;100.00;99572.22;4879651;29;20532;-83
2022/11/15 07:20:30;;;;;;;65.75;43.33;;;;;;;5.05;100.00;99573.44;4881081;29;20087;-83
2022/11/15 07:23:05;;;;;;;67.70;44.70;;;;;;;5.16;100.00;99565.41;4881052;29;20068;-83
2022/11/15 07:25:31;;;;;;;63.40;42.65;;;;;;;5.39;100.00;99563.06;4881180;29;20120;-83
2022/11/15 07:28:00;;;;;;;64.32;42.70;;;;;;;5.59;100.00;99562.53;4879559;29;20450;-83
2022/11/15 07:30:26;;;;;;;64.30;42.97;;;;;;;5.68;100.00;99553.66;4879778;29;20346;-83
2022/11/15 07:32:56;;;;;;;61.58;41.90;;;;;;;5.91;100.00;99565.94;4884656;29;20419;-83
2022/11/15 07:35:23;;;;;;;63.42;44.25;;;;;;;6.07;100.00;99562.06;4888282;29;20132;-83
2022/11/15 07:37:55;;;;;;;61.40;42.60;;;;;;;6.23;100.00;99563.28;4889467;29;20028;-84
2022/11/15 07:40:21;;;;;;;70.28;47.00;;;;;;;6.33;100.00;99555.25;4889376;29;20093;-82
2022/11/15 07:42:53;;;;;;;60.60;44.30;;;;;;;6.37;100.00;99544.75;4886194;29;20120;-83
2022/11/15 07:45:18;;;;;;;59.97;40.58;;;;;;;6.57;100.00;99548.44;4892291;29;20024;-84
2022/11/15 07:47:48;;;;;;;57.05;38.97;;;;;;;6.70;100.00;99547.16;4895527;29;20024;-84
2022/11/15 07:50:14;;;;;;;58.08;41.25;;;;;;;6.87;100.00;99549.19;4897518;29;20051;-83
2022/11/15 07:52:39;;;;;;;59.92;42.15;;;;;;;6.97;100.00;99546.25;4899385;29;20465;-83
2022/11/15 07:55:05;;;;;;;56.67;38.65;;;;;;;7.04;100.00;99544.31;4897859;29;20112;-84
2022/11/15 07:57:30;;;;;;;57.90;38.95;;;;;;;7.16;100.00;99548.22;4899252;29;20060;-84
2022/11/15 07:59:55;;;;;;;59.97;40.95;;;;;;;7.14;100.00;99535.31;4885333;29;20029;-84
2022/11/15 08:02:21;;;;;;;54.13;38.45;;;;;;;7.29;100.00;99552.09;4863504;29;20025;-84
2022/11/15 08:04:46;;;;;;;47.72;35.55;;;;;;;7.31;100.00;99558.06;4878840;29;20040;-84
2022/11/15 08:07:12;;;;;;;54.50;34.80;;;;;;;7.34;100.00;99557.13;4879006;29;20054;-83
2022/11/15 08:09:38;;;;;;;52.33;35.20;;;;;;;7.35;100.00;99548.44;4879006;29;20112;-83
2022/11/15 08:12:03;;;;;;;49.85;35.33;;;;;;;7.38;100.00;99538.81;4880084;29;20479;-83
2022/11/15 08:14:29;;;;;;;47.30;35.05;;;;;;;7.38;100.00;99541.41;4880017;29;20029;-84
2022/11/15 08:16:55;;;;;;;49.40;35.42;;;;;;;7.27;100.00;99515.03;4862992;29;20491;-83
2022/11/15 08:19:20;;;;;;;51.30;34.83;;;;;;;7.46;100.00;99539.41;4878954;29;20025;-83
2022/11/15 08:21:45;;;;;;;62.30;46.35;;;;;;;7.42;100.00;99531.78;4878535;29;20135;-83
2022/11/15 08:24:11;;;;;;;55.28;38.92;;;;;;;7.48;100.00;99536.75;4880105;29;20350;-83
2022/11/15 08:26:36;;;;;;;50.22;35.38;;;;;;;7.48;100.00;99536.75;4863199;29;20035;-84
2022/11/15 08:29:01;;;;;;;47.22;33.83;;;;;;;7.44;100.00;99519.59;4879757;29;20025;-83
2022/11/15 08:31:27;;;;;;;49.70;34.83;;;;;;;7.61;100.00;99529.38;4879667;29;20044;-83
2022/11/15 08:33:52;;;;;;;48.67;35.40;;;;;;;7.57;100.00;99515.66;4879827;29;20021;-83
2022/11/15 08:36:17;;;;;;;49.78;36.25;;;;;;;7.60;100.00;99525.94;4879866;29;20049;-83
2022/11/15 08:38:43;;;;;;;46.40;31.33;;;;;;;7.59;100.00;99515.63;4879779;29;20022;-83
2022/11/15 08:41:33;;;;;;;50.63;32.92;;;;;;;7.66;100.00;99520.50;4878377;29;20049;-83
2022/11/15 08:43:58;;;;;;;41.03;29.95;;;;;;;7.62;100.00;99518.09;4879515;29;20095;-84
2022/11/15 08:46:24;;;;;;;43.13;30.88;;;;;;;7.58;100.00;99504.38;4878667;29;20120;-83
2022/11/15 08:48:49;;;;;;;46.00;31.65;;;;;;;7.68;100.00;99515.28;4862861;29;20031;-83
2022/11/15 08:51:15;;;;;;;46.83;33.38;;;;;;;7.63;100.00;99509.44;4878403;29;20036;-83
2022/11/15 08:53:41;;;;;;;46.58;33.55;;;;;;;7.47;100.00;99504.78;4878189;29;20492;-83
2022/11/15 08:56:14;;;;;;;47.80;33.10;;;;;;;7.53;100.00;99508.91;4879213;29;20059;-83
2022/11/15 08:58:40;;;;;;;50.47;31.92;;;;;;;7.58;100.00;99514.75;4879487;29;20038;-84
2022/11/15 09:01:05;;;;;;;50.08;35.63;;;;;;;7.57;100.00;99518.25;4878696;29;20037;-83
2022/11/15 09:03:31;;;;;;;48.22;34.97;;;;;;;7.61;100.00;99526.78;4878187;29;20359;-84
2022/11/15 09:06:00;;;;;;;48.13;35.38;;;;;;;7.57;100.00;99514.81;4877863;29;20128;-83
2022/11/15 09:08:30;;;;;;;51.28;35.17;;;;;;;7.58;100.00;99522.53;4878069;29;20044;-83
2022/11/15 09:10:56;;;;;;;51.38;35.97;;;;;;;7.57;100.00;99520.00;4879386;29;20037;-84
2022/11/15 09:13:22;;;;;;;52.08;36.05;;;;;;;7.64;100.00;99518.91;4879161;29;20103;-84
2022/11/15 09:15:47;;;;;;;48.78;34.05;;;;;;;7.59;100.00;99519.06;4862497;29;20033;-84
2022/11/15 09:18:12;;;;;;;47.55;34.97;;;;;;;7.57;100.00;99522.59;4879109;29;20458;-83
2022/11/15 09:20:38;;;;;;;48.67;36.38;;;;;;;7.63;100.00;99525.81;4877888;29;20020;-83
2022/11/15 09:23:04;;;;;;;48.33;35.75;;;;;;;7.71;100.00;99517.75;4877342;29;20437;-84
2022/11/15 09:25:30;;;;;;;50.45;34.42;;;;;;;7.65;100.00;99507.63;4878920;29;20025;-83
2022/11/15 09:27:55;;;;;;;48.58;35.42;;;;;;;7.79;100.00;99513.13;4878586;29;20033;-84
2022/11/15 09:30:20;;;;;;;46.80;33.90;;;;;;;7.88;100.00;99514.53;4878820;29;20426;-83
2022/11/15 09:32:46;;;;;;;50.50;35.72;;;;;;;7.88;100.00;99515.41;4879008;29;20144;-83
2022/11/15 09:35:11;;;;;;;49.88;34.30;;;;;;;7.89;100.00;99518.81;4877391;29;20029;-84
2022/11/15 09:37:37;;;;;;;57.13;38.17;;;;;;;7.96;100.00;99518.53;4877540;29;20436;-84
2022/11/15 09:40:03;;;;;;;53.13;36.78;;;;;;;7.99;100.00;99525.34;4878451;29;20414;-83
2022/11/15 09:42:52;;;;;;;60.00;37.45;;;;;;;7.99;100.00;99526.19;4877375;29;20029;-83
2022/11/15 09:45:41;;;;;;;49.40;36.20;;;;;;;8.07;100.00;99517.28;4878712;29;20029;-84
2022/11/15 09:48:31;;;;;;;51.08;34.63;;;;;;;8.02;100.00;99490.69;4878466;29;20461;-84
2022/11/15 09:51:00;;;;;;;59.22;39.13;;;;;;;8.10;100.00;99507.63;4878582;29;20029;-83
2022/11/15 09:53:32;;;;;;;62.10;43.13;;;;;;;8.16;100.00;99503.94;4878512;29;20060;-84
2022/11/15 09:56:00;;;;;;;54.53;38.17;;;;;;;8.24;100.00;99496.72;4878300;29;20024;-83
2022/11/15 09:58:59;;;;;;;55.17;38.10;;;;;;;8.18;100.00;99487.44;4861568;29;20025;-84
2022/11/15 10:01:59;;;;;;;51.72;37.53;;;;;;;8.11;100.00;99472.16;4878733;29;20108;-84
2022/11/15 10:04:26;;;;;;;54.45;37.70;;;;;;;8.25;100.00;99475.88;4839421;29;20034;-84
2022/11/15 10:07:16;;;;;;;47.45;36.10;;;;;;;8.25;100.00;99468.09;4838855;29;20049;-83
2022/11/15 10:09:50;;;;;;;56.90;38.17;;;;;;;8.28;100.00;99471.50;4839070;29;20054;-83
2022/11/15 10:12:17;;;;;;;52.85;36.83;;;;;;;8.35;100.00;99454.78;4838867;29;20033;-84
2022/11/15 10:14:43;;;;;;;55.40;34.88;;;;;;;8.35;100.00;99455.63;4823692;29;20034;-84
2022/11/15 10:17:50;;;;;;;47.10;34.72;;;;;;;8.31;100.00;99455.81;4823563;29;20029;-84
2022/11/15 10:20:24;;;;;;;42.78;32.45;;;;;;;8.42;100.00;99445.84;4838767;29;20510;-83
2022/11/15 10:22:56;;;;;;;48.42;32.58;;;;;;;8.58;100.00;99457.28;4823424;29;20094;-84
2022/11/15 10:25:27;;;;;;;42.78;33.22;;;;;;;8.59;100.00;99434.75;4823612;29;20528;-84
2022/11/15 10:27:54;;;;;;;43.22;32.95;;;;;;;8.69;100.00;99443.88;4823249;29;20041;-84
2022/11/15 10:30:20;;;;;;;44.38;30.25;;;;;;;8.73;100.00;99435.88;4838889;29;20034;-84
2022/11/15 10:32:47;;;;;;;45.78;32.38;;;;;;;8.86;100.00;99438.81;4838830;29;20530;-84
2022/11/15 10:35:28;;;;;;;49.08;33.95;;;;;;;8.80;100.00;99414.84;4823538;29;20045;-84
2022/11/15 10:38:05;;;;;;;47.72;33.67;;;;;;;8.99;100.00;99432.16;4823150;29;20034;-84
2022/11/15 10:40:31;;;;;;;45.97;31.50;;;;;;;9.05;100.00;99427.59;4826989;29;20034;-84
2022/11/15 10:43:08;;;;;;;51.10;32.50;;;;;;;9.10;100.00;99429.09;4876728;29;20040;-84
2022/11/15 10:45:34;;;;;;;46.40;32.95;;;;;;;9.08;100.00;99414.50;4878158;29;20065;-84
2022/11/15 10:48:11;;;;;;;49.80;34.22;;;;;;;9.19;100.00;99427.84;4877832;29;20086;-84
2022/11/15 10:50:38;;;;;;;47.67;33.72;;;;;;;9.21;100.00;99420.81;4876716;29;20116;-84
2022/11/15 10:53:11;;;;;;;47.80;32.75;;;;;;;9.23;100.00;99419.84;4876389;29;20033;-84
2022/11/15 10:55:40;;;;;;;49.13;33.40;;;;;;;9.31;100.00;99408.25;4876777;29;20017;-84
2022/11/15 10:58:21;;;;;;;53.13;33.03;;;;;;;9.36;100.00;99411.50;4877597;29;20521;-84
2022/11/15 11:00:47;;;;;;;44.83;33.10;;;;;;;9.40;100.00;99406.09;4876719;29;20025;-83
2022/11/15 11:03:38;;;;;;;44.75;31.58;;;;;;;9.47;100.00;99404.88;4876313;29;20025;-84
2022/11/15 11:06:23;;;;;;;42.05;31.98;;;;;;;9.54;100.00;99402.00;4838302;29;20038;-84
2022/11/15 11:09:21;;;;;;;46.42;31.05;;;;;;;9.59;100.00;99397.44;4822758;29;20042;-83
2022/11/15 11:11:50;;;;;;;39.95;29.83;;;;;;;9.58;100.00;99398.34;4837823;29;20112;-84
2022/11/15 11:14:27;;;;;;;42.38;30.08;;;;;;;9.62;100.00;99403.34;4822978;29;20038;-84
2022/11/15 11:17:13;;;;;;;45.58;29.75;;;;;;;9.64;100.00;99398.06;4823149;29;20030;-84
2022/11/15 11:19:56;;;;;;;42.70;30.08;;;;;;;9.64;100.00;99398.91;4838472;29;20034;-84
2022/11/15 11:22:59;;;;;;;41.30;31.10;;;;;;;9.68;100.00;99397.00;4823005;29;20513;-84
2022/11/15 11:25:47;;;;;;;40.92;31.50;;;;;;;9.71;100.00;99402.06;4840737;29;20041;-84
2022/11/15 11:28:40;;;;;;;45.13;31.50;;;;;;;9.71;100.00;99389.06;4825876;29;20026;-84
2022/11/15 11:31:39;;;;;;;46.08;32.72;;;;;;;9.73;100.00;99387.22;4841441;29;20093;-84
2022/11/15 11:34:42;;;;;;;46.60;31.90;;;;;;;9.72;100.00;99380.34;4825863;29;20026;-84
2022/11/15 11:37:36;;;;;;;51.42;33.90;;;;;;;9.76;100.00;99387.09;4825775;29;20490;-84
2022/11/15 11:40:20;;;;;;;49.70;33.85;;;;;;;9.80;100.00;99374.78;4825780;29;20123;-84
2022/11/15 11:43:01;;;;;;;48.25;31.95;;;;;;;9.83;100.00;99369.44;4844664;29;20498;-84